Peaks Island, Maine
Current Conditions -  °F | °C
As of 10:51 PM on Tuesday 25 Nov 2014 (Local Time) from KPWM Reporting Station
Clear Clear  
Wind Chill: 42°   Ceiling: Unl
Heat Index: 45°   Visibility: 10mi
Dew Point: 27°   Wind: 6mph
Humidity: 49%   Direction: 220°SW
Pressure: 30.06"   Gusts: NA
Location:  43.66°N, 70.2°W
Report Text: KPWM 260351Z 22005KT 10SM CLR 07/M03 A3006 RMK AO2 SLP178 T00721028
Loading
Personal Weather Stations






























Interactive Weather Map New forecast layout! Learn more

10-Day Weather Forecast

Advertisements
Track Severe Weather on mobile